sensor_id;sensor_type;location;lat;lon;timestamp;P1;durP1;ratioP1;P2;durP2;ratioP2
72261;SDS011;60173;52.112;8.648;2023-04-24T00:01:48;1.02;;;0.70;;
72261;SDS011;60173;52.112;8.648;2023-04-24T00:04:15;1.38;;;0.82;;
72261;SDS011;60173;52.112;8.648;2023-04-24T00:06:42;1.85;;;0.90;;
72261;SDS011;60173;52.112;8.648;2023-04-24T00:09:09;2.20;;;0.70;;
72261;SDS011;60173;52.112;8.648;2023-04-24T00:11:36;1.33;;;0.68;;
72261;SDS011;60173;52.112;8.648;2023-04-24T00:14:02;1.13;;;0.60;;
72261;SDS011;60173;52.112;8.648;2023-04-24T00:16:29;0.60;;;0.60;;
72261;SDS011;60173;52.112;8.648;2023-04-24T00:18:55;1.10;;;0.60;;
72261;SDS011;60173;52.112;8.648;2023-04-24T00:21:21;1.88;;;0.60;;
72261;SDS011;60173;52.112;8.648;2023-04-24T00:23:48;0.63;;;0.40;;
72261;SDS011;60173;52.112;8.648;2023-04-24T00:26:14;0.50;;;0.50;;
72261;SDS011;60173;52.112;8.648;2023-04-24T00:28:40;1.25;;;0.40;;
72261;SDS011;60173;52.112;8.648;2023-04-24T00:31:07;0.80;;;0.52;;
72261;SDS011;60173;52.112;8.648;2023-04-24T00:33:33;0.57;;;0.57;;
72261;SDS011;60173;52.112;8.648;2023-04-24T00:35:59;0.68;;;0.60;;
72261;SDS011;60173;52.112;8.648;2023-04-24T00:38:26;0.82;;;0.70;;
72261;SDS011;60173;52.112;8.648;2023-04-24T00:40:52;3.15;;;0.60;;
72261;SDS011;60173;52.112;8.648;2023-04-24T00:43:18;2.75;;;0.70;;
72261;SDS011;60173;52.112;8.648;2023-04-24T00:45:45;1.75;;;0.70;;
72261;SDS011;60173;52.112;8.648;2023-04-24T00:48:12;0.93;;;0.70;;
72261;SDS011;60173;52.112;8.648;2023-04-24T00:50:39;1.00;;;0.50;;
72261;SDS011;60173;52.112;8.648;2023-04-24T00:53:05;1.58;;;0.50;;
72261;SDS011;60173;52.112;8.648;2023-04-24T00:55:31;1.15;;;0.70;;
72261;SDS011;60173;52.112;8.648;2023-04-24T00:57:58;1.52;;;0.82;;
72261;SDS011;60173;52.112;8.648;2023-04-24T01:00:25;1.35;;;0.88;;
72261;SDS011;60173;52.112;8.648;2023-04-24T01:02:52;0.95;;;0.93;;
72261;SDS011;60173;52.112;8.648;2023-04-24T01:05:19;0.90;;;0.80;;
72261;SDS011;60173;52.112;8.648;2023-04-24T01:07:45;0.70;;;0.70;;
72261;SDS011;60173;52.112;8.648;2023-04-24T01:10:13;1.65;;;0.80;;
72261;SDS011;60173;52.112;8.648;2023-04-24T01:12:40;1.90;;;1.00;;
72261;SDS011;60173;52.112;8.648;2023-04-24T01:15:07;0.95;;;0.90;;
72261;SDS011;60173;52.112;8.648;2023-04-24T01:17:34;2.22;;;1.00;;
72261;SDS011;60173;52.112;8.648;2023-04-24T01:20:00;0.95;;;0.88;;
72261;SDS011;60173;52.112;8.648;2023-04-24T01:22:27;1.33;;;1.02;;
72261;SDS011;60173;52.112;8.648;2023-04-24T01:24:53;1.02;;;0.85;;
72261;SDS011;60173;52.112;8.648;2023-04-24T01:27:20;0.93;;;0.90;;
72261;SDS011;60173;52.112;8.648;2023-04-24T01:29:46;2.70;;;1.17;;
72261;SDS011;60173;52.112;8.648;2023-04-24T01:32:13;3.10;;;1.25;;
72261;SDS011;60173;52.112;8.648;2023-04-24T01:34:39;1.40;;;0.90;;
72261;SDS011;60173;52.112;8.648;2023-04-24T01:37:06;1.13;;;0.93;;
72261;SDS011;60173;52.112;8.648;2023-04-24T01:39:32;1.45;;;1.27;;
72261;SDS011;60173;52.112;8.648;2023-04-24T01:41:59;3.28;;;1.00;;
72261;SDS011;60173;52.112;8.648;2023-04-24T01:44:26;1.05;;;0.95;;
72261;SDS011;60173;52.112;8.648;2023-04-24T01:46:54;2.75;;;1.25;;
72261;SDS011;60173;52.112;8.648;2023-04-24T01:49:21;1.63;;;1.40;;
72261;SDS011;60173;52.112;8.648;2023-04-24T01:51:47;2.58;;;1.45;;
72261;SDS011;60173;52.112;8.648;2023-04-24T01:54:14;3.35;;;1.30;;
72261;SDS011;60173;52.112;8.648;2023-04-24T01:56:41;2.13;;;1.20;;
72261;SDS011;60173;52.112;8.648;2023-04-24T01:59:10;1.88;;;1.20;;
72261;SDS011;60173;52.112;8.648;2023-04-24T02:01:37;1.95;;;1.30;;
72261;SDS011;60173;52.112;8.648;2023-04-24T02:04:04;2.65;;;1.30;;
72261;SDS011;60173;52.112;8.648;2023-04-24T02:06:31;1.48;;;1.30;;
72261;SDS011;60173;52.112;8.648;2023-04-24T02:08:58;2.35;;;1.30;;
72261;SDS011;60173;52.112;8.648;2023-04-24T02:11:25;1.60;;;1.10;;
72261;SDS011;60173;52.112;8.648;2023-04-24T02:13:52;2.00;;;1.08;;
72261;SDS011;60173;52.112;8.648;2023-04-24T02:16:19;1.30;;;1.17;;
72261;SDS011;60173;52.112;8.648;2023-04-24T02:18:45;1.60;;;1.10;;
72261;SDS011;60173;52.112;8.648;2023-04-24T02:21:11;2.47;;;1.23;;
72261;SDS011;60173;52.112;8.648;2023-04-24T02:23:38;1.75;;;1.20;;
72261;SDS011;60173;52.112;8.648;2023-04-24T02:26:05;3.38;;;1.30;;
72261;SDS011;60173;52.112;8.648;2023-04-24T02:28:31;2.83;;;1.60;;
72261;SDS011;60173;52.112;8.648;2023-04-24T02:30:57;3.03;;;1.45;;
72261;SDS011;60173;52.112;8.648;2023-04-24T02:33:24;2.45;;;1.52;;
72261;SDS011;60173;52.112;8.648;2023-04-24T02:35:50;2.15;;;1.52;;
72261;SDS011;60173;52.112;8.648;2023-04-24T02:38:16;2.45;;;1.55;;
72261;SDS011;60173;52.112;8.648;2023-04-24T02:40:43;2.47;;;1.65;;
72261;SDS011;60173;52.112;8.648;2023-04-24T02:43:09;2.50;;;1.58;;
72261;SDS011;60173;52.112;8.648;2023-04-24T02:45:35;3.17;;;1.83;;
72261;SDS011;60173;52.112;8.648;2023-04-24T02:48:02;4.10;;;1.60;;
72261;SDS011;60173;52.112;8.648;2023-04-24T02:50:28;2.90;;;1.63;;
72261;SDS011;60173;52.112;8.648;2023-04-24T02:52:54;2.30;;;1.60;;
72261;SDS011;60173;52.112;8.648;2023-04-24T02:55:21;2.85;;;1.60;;
72261;SDS011;60173;52.112;8.648;2023-04-24T02:57:47;2.65;;;1.48;;
72261;SDS011;60173;52.112;8.648;2023-04-24T03:00:13;2.33;;;1.60;;
72261;SDS011;60173;52.112;8.648;2023-04-24T03:02:40;2.28;;;1.40;;
72261;SDS011;60173;52.112;8.648;2023-04-24T03:05:07;2.00;;;1.45;;
72261;SDS011;60173;52.112;8.648;2023-04-24T03:07:33;1.73;;;1.30;;
72261;SDS011;60173;52.112;8.648;2023-04-24T03:09:59;3.20;;;1.55;;
72261;SDS011;60173;52.112;8.648;2023-04-24T03:12:26;1.70;;;1.35;;
72261;SDS011;60173;52.112;8.648;2023-04-24T03:14:52;2.92;;;1.40;;
72261;SDS011;60173;52.112;8.648;2023-04-24T03:17:18;3.10;;;1.40;;
72261;SDS011;60173;52.112;8.648;2023-04-24T03:19:45;3.05;;;1.40;;
72261;SDS011;60173;52.112;8.648;2023-04-24T03:22:11;1.60;;;1.27;;
72261;SDS011;60173;52.112;8.648;2023-04-24T03:24:37;2.47;;;1.20;;
72261;SDS011;60173;52.112;8.648;2023-04-24T03:27:04;3.97;;;1.55;;
72261;SDS011;60173;52.112;8.648;2023-04-24T03:29:30;4.50;;;1.60;;
72261;SDS011;60173;52.112;8.648;2023-04-24T03:31:56;2.58;;;1.50;;
72261;SDS011;60173;52.112;8.648;2023-04-24T03:34:23;2.20;;;1.52;;
72261;SDS011;60173;52.112;8.648;2023-04-24T03:36:49;1.50;;;1.23;;
72261;SDS011;60173;52.112;8.648;2023-04-24T03:39:16;2.10;;;1.02;;
72261;SDS011;60173;52.112;8.648;2023-04-24T03:41:42;1.10;;;1.00;;
72261;SDS011;60173;52.112;8.648;2023-04-24T03:44:08;1.40;;;1.25;;
72261;SDS011;60173;52.112;8.648;2023-04-24T03:46:34;3.03;;;1.70;;
72261;SDS011;60173;52.112;8.648;2023-04-24T03:49:01;1.30;;;1.20;;
72261;SDS011;60173;52.112;8.648;2023-04-24T03:51:27;2.70;;;1.30;;
72261;SDS011;60173;52.112;8.648;2023-04-24T03:53:54;2.17;;;1.30;;
72261;SDS011;60173;52.112;8.648;2023-04-24T03:56:20;3.85;;;1.33;;
72261;SDS011;60173;52.112;8.648;2023-04-24T03:58:46;3.88;;;1.50;;
72261;SDS011;60173;52.112;8.648;2023-04-24T04:01:12;4.00;;;1.60;;
72261;SDS011;60173;52.112;8.648;2023-04-24T04:03:39;3.08;;;2.03;;
72261;SDS011;60173;52.112;8.648;2023-04-24T04:06:06;4.50;;;1.52;;
72261;SDS011;60173;52.112;8.648;2023-04-24T04:08:32;2.17;;;1.55;;
72261;SDS011;60173;52.112;8.648;2023-04-24T04:10:59;3.35;;;1.80;;
72261;SDS011;60173;52.112;8.648;2023-04-24T04:13:25;2.22;;;1.80;;
72261;SDS011;60173;52.112;8.648;2023-04-24T04:15:51;2.83;;;1.80;;
72261;SDS011;60173;52.112;8.648;2023-04-24T04:18:18;3.20;;;2.10;;
72261;SDS011;60173;52.112;8.648;2023-04-24T04:20:44;2.95;;;1.92;;
72261;SDS011;60173;52.112;8.648;2023-04-24T04:23:10;2.72;;;2.00;;
72261;SDS011;60173;52.112;8.648;2023-04-24T04:25:37;3.05;;;2.20;;
72261;SDS011;60173;52.112;8.648;2023-04-24T04:28:03;3.67;;;2.17;;
72261;SDS011;60173;52.112;8.648;2023-04-24T04:30:29;3.08;;;2.00;;
72261;SDS011;60173;52.112;8.648;2023-04-24T04:32:56;3.75;;;2.28;;
72261;SDS011;60173;52.112;8.648;2023-04-24T04:35:22;2.53;;;2.10;;
72261;SDS011;60173;52.112;8.648;2023-04-24T04:37:48;2.63;;;1.92;;
72261;SDS011;60173;52.112;8.648;2023-04-24T04:40:15;3.65;;;2.35;;
72261;SDS011;60173;52.112;8.648;2023-04-24T04:42:41;3.00;;;2.45;;
72261;SDS011;60173;52.112;8.648;2023-04-24T04:45:07;4.18;;;2.55;;
72261;SDS011;60173;52.112;8.648;2023-04-24T04:47:34;4.05;;;2.92;;
72261;SDS011;60173;52.112;8.648;2023-04-24T04:50:01;3.75;;;2.58;;
72261;SDS011;60173;52.112;8.648;2023-04-24T04:52:27;5.53;;;3.13;;
72261;SDS011;60173;52.112;8.648;2023-04-24T04:54:53;4.90;;;2.83;;
72261;SDS011;60173;52.112;8.648;2023-04-24T04:57:20;9.32;;;3.30;;
72261;SDS011;60173;52.112;8.648;2023-04-24T04:59:46;5.60;;;2.95;;
72261;SDS011;60173;52.112;8.648;2023-04-24T05:02:12;5.38;;;3.20;;
72261;SDS011;60173;52.112;8.648;2023-04-24T05:04:39;6.72;;;4.20;;
72261;SDS011;60173;52.112;8.648;2023-04-24T05:07:05;8.63;;;5.10;;
72261;SDS011;60173;52.112;8.648;2023-04-24T05:09:32;9.18;;;5.70;;
72261;SDS011;60173;52.112;8.648;2023-04-24T05:11:58;10.93;;;6.15;;
72261;SDS011;60173;52.112;8.648;2023-04-24T05:14:24;10.35;;;6.72;;
72261;SDS011;60173;52.112;8.648;2023-04-24T05:16:51;16.35;;;7.78;;
72261;SDS011;60173;52.112;8.648;2023-04-24T05:19:17;12.07;;;8.05;;
72261;SDS011;60173;52.112;8.648;2023-04-24T05:21:43;13.07;;;8.93;;
72261;SDS011;60173;52.112;8.648;2023-04-24T05:24:10;13.07;;;9.18;;
72261;SDS011;60173;52.112;8.648;2023-04-24T05:26:36;13.13;;;8.73;;
72261;SDS011;60173;52.112;8.648;2023-04-24T05:29:02;13.25;;;9.40;;
72261;SDS011;60173;52.112;8.648;2023-04-24T05:31:29;12.50;;;8.43;;
72261;SDS011;60173;52.112;8.648;2023-04-24T05:33:55;12.40;;;8.45;;
72261;SDS011;60173;52.112;8.648;2023-04-24T05:36:22;14.68;;;8.52;;
72261;SDS011;60173;52.112;8.648;2023-04-24T05:38:48;13.90;;;9.23;;
72261;SDS011;60173;52.112;8.648;2023-04-24T05:41:14;14.40;;;9.18;;
72261;SDS011;60173;52.112;8.648;2023-04-24T05:43:41;12.45;;;9.35;;
72261;SDS011;60173;52.112;8.648;2023-04-24T05:46:07;13.50;;;9.55;;
72261;SDS011;60173;52.112;8.648;2023-04-24T05:48:33;14.23;;;9.68;;
72261;SDS011;60173;52.112;8.648;2023-04-24T05:51:00;16.08;;;9.73;;
72261;SDS011;60173;52.112;8.648;2023-04-24T05:53:26;15.57;;;10.20;;
72261;SDS011;60173;52.112;8.648;2023-04-24T05:55:52;16.52;;;10.40;;
72261;SDS011;60173;52.112;8.648;2023-04-24T05:58:19;16.02;;;9.93;;
72261;SDS011;60173;52.112;8.648;2023-04-24T06:00:45;17.15;;;10.88;;
72261;SDS011;60173;52.112;8.648;2023-04-24T06:03:12;18.15;;;11.05;;
72261;SDS011;60173;52.112;8.648;2023-04-24T06:05:38;16.95;;;11.10;;
72261;SDS011;60173;52.112;8.648;2023-04-24T06:08:05;16.83;;;10.52;;
72261;SDS011;60173;52.112;8.648;2023-04-24T06:10:31;19.35;;;11.52;;
72261;SDS011;60173;52.112;8.648;2023-04-24T06:12:57;19.33;;;11.70;;
72261;SDS011;60173;52.112;8.648;2023-04-24T06:15:24;19.25;;;11.88;;
72261;SDS011;60173;52.112;8.648;2023-04-24T06:17:50;19.35;;;11.57;;
72261;SDS011;60173;52.112;8.648;2023-04-24T06:20:17;17.58;;;11.57;;
72261;SDS011;60173;52.112;8.648;2023-04-24T06:22:43;16.10;;;11.40;;
72261;SDS011;60173;52.112;8.648;2023-04-24T06:25:09;21.30;;;12.73;;
72261;SDS011;60173;52.112;8.648;2023-04-24T06:27:35;19.80;;;12.15;;
72261;SDS011;60173;52.112;8.648;2023-04-24T06:30:02;21.30;;;13.02;;
72261;SDS011;60173;52.112;8.648;2023-04-24T06:32:29;17.65;;;11.85;;
72261;SDS011;60173;52.112;8.648;2023-04-24T06:34:55;17.55;;;12.27;;
72261;SDS011;60173;52.112;8.648;2023-04-24T06:37:24;17.92;;;12.55;;
72261;SDS011;60173;52.112;8.648;2023-04-24T06:39:50;20.27;;;13.07;;
72261;SDS011;60173;52.112;8.648;2023-04-24T06:42:16;18.85;;;12.98;;
72261;SDS011;60173;52.112;8.648;2023-04-24T06:44:43;19.50;;;13.02;;
72261;SDS011;60173;52.112;8.648;2023-04-24T06:47:09;20.80;;;13.32;;
72261;SDS011;60173;52.112;8.648;2023-04-24T06:49:36;20.17;;;13.07;;
72261;SDS011;60173;52.112;8.648;2023-04-24T06:52:03;18.92;;;13.32;;
72261;SDS011;60173;52.112;8.648;2023-04-24T06:54:30;20.02;;;13.57;;
72261;SDS011;60173;52.112;8.648;2023-04-24T06:56:56;22.15;;;13.88;;
72261;SDS011;60173;52.112;8.648;2023-04-24T06:59:23;19.70;;;14.30;;
72261;SDS011;60173;52.112;8.648;2023-04-24T07:01:50;17.98;;;13.52;;
72261;SDS011;60173;52.112;8.648;2023-04-24T07:04:20;21.30;;;13.70;;
72261;SDS011;60173;52.112;8.648;2023-04-24T07:06:47;20.58;;;13.95;;
72261;SDS011;60173;52.112;8.648;2023-04-24T07:09:13;17.05;;;12.82;;
72261;SDS011;60173;52.112;8.648;2023-04-24T07:11:40;19.33;;;13.25;;
72261;SDS011;60173;52.112;8.648;2023-04-24T07:14:06;20.45;;;13.52;;
72261;SDS011;60173;52.112;8.648;2023-04-24T07:16:33;21.23;;;14.15;;
72261;SDS011;60173;52.112;8.648;2023-04-24T07:18:59;19.08;;;13.40;;
72261;SDS011;60173;52.112;8.648;2023-04-24T07:21:26;18.63;;;13.13;;
72261;SDS011;60173;52.112;8.648;2023-04-24T07:23:52;21.20;;;13.57;;
72261;SDS011;60173;52.112;8.648;2023-04-24T07:26:19;21.15;;;13.90;;
72261;SDS011;60173;52.112;8.648;2023-04-24T07:28:46;19.50;;;13.77;;
72261;SDS011;60173;52.112;8.648;2023-04-24T07:31:12;18.27;;;13.15;;
72261;SDS011;60173;52.112;8.648;2023-04-24T07:33:39;19.45;;;12.50;;
72261;SDS011;60173;52.112;8.648;2023-04-24T07:36:05;17.17;;;12.05;;
72261;SDS011;60173;52.112;8.648;2023-04-24T07:38:32;14.63;;;11.25;;
72261;SDS011;60173;52.112;8.648;2023-04-24T07:40:58;15.48;;;10.80;;
72261;SDS011;60173;52.112;8.648;2023-04-24T07:43:24;16.48;;;10.95;;
72261;SDS011;60173;52.112;8.648;2023-04-24T07:45:51;13.68;;;10.57;;
72261;SDS011;60173;52.112;8.648;2023-04-24T07:48:17;18.77;;;10.95;;
72261;SDS011;60173;52.112;8.648;2023-04-24T07:50:44;17.27;;;10.68;;
72261;SDS011;60173;52.112;8.648;2023-04-24T07:53:11;14.50;;;9.70;;
72261;SDS011;60173;52.112;8.648;2023-04-24T07:55:37;11.27;;;8.88;;
72261;SDS011;60173;52.112;8.648;2023-04-24T07:58:03;14.13;;;9.48;;
72261;SDS011;60173;52.112;8.648;2023-04-24T08:00:30;11.77;;;8.57;;
72261;SDS011;60173;52.112;8.648;2023-04-24T08:02:56;13.20;;;9.23;;
72261;SDS011;60173;52.112;8.648;2023-04-24T08:05:23;12.48;;;8.77;;
72261;SDS011;60173;52.112;8.648;2023-04-24T08:07:49;12.10;;;7.95;;
72261;SDS011;60173;52.112;8.648;2023-04-24T08:10:16;10.20;;;7.43;;
72261;SDS011;60173;52.112;8.648;2023-04-24T08:12:42;13.25;;;7.13;;
72261;SDS011;60173;52.112;8.648;2023-04-24T08:15:08;8.93;;;6.88;;
72261;SDS011;60173;52.112;8.648;2023-04-24T08:17:35;8.75;;;5.93;;
72261;SDS011;60173;52.112;8.648;2023-04-24T08:20:04;7.28;;;5.60;;
72261;SDS011;60173;52.112;8.648;2023-04-24T08:22:31;12.18;;;6.68;;
72261;SDS011;60173;52.112;8.648;2023-04-24T08:24:59;7.10;;;5.97;;
72261;SDS011;60173;52.112;8.648;2023-04-24T08:27:26;9.55;;;6.15;;
72261;SDS011;60173;52.112;8.648;2023-04-24T08:29:53;10.05;;;5.80;;
72261;SDS011;60173;52.112;8.648;2023-04-24T08:32:19;9.05;;;5.82;;
72261;SDS011;60173;52.112;8.648;2023-04-24T08:34:46;7.40;;;5.28;;
72261;SDS011;60173;52.112;8.648;2023-04-24T08:37:14;8.82;;;5.63;;
72261;SDS011;60173;52.112;8.648;2023-04-24T08:39:41;7.93;;;5.80;;
72261;SDS011;60173;52.112;8.648;2023-04-24T08:42:07;8.27;;;5.28;;
72261;SDS011;60173;52.112;8.648;2023-04-24T08:44:35;8.35;;;5.10;;
72261;SDS011;60173;52.112;8.648;2023-04-24T08:47:02;6.28;;;4.80;;
72261;SDS011;60173;52.112;8.648;2023-04-24T08:49:29;6.00;;;4.93;;
72261;SDS011;60173;52.112;8.648;2023-04-24T08:51:55;7.15;;;4.05;;
72261;SDS011;60173;52.112;8.648;2023-04-24T08:54:22;6.78;;;4.45;;
72261;SDS011;60173;52.112;8.648;2023-04-24T08:56:49;4.45;;;3.33;;
72261;SDS011;60173;52.112;8.648;2023-04-24T08:59:16;6.93;;;3.80;;
72261;SDS011;60173;52.112;8.648;2023-04-24T09:01:44;4.10;;;3.20;;
72261;SDS011;60173;52.112;8.648;2023-04-24T09:04:12;3.72;;;3.03;;
72261;SDS011;60173;52.112;8.648;2023-04-24T09:06:41;3.88;;;3.08;;
72261;SDS011;60173;52.112;8.648;2023-04-24T09:09:08;3.70;;;3.00;;
72261;SDS011;60173;52.112;8.648;2023-04-24T09:11:36;3.17;;;2.53;;
72261;SDS011;60173;52.112;8.648;2023-04-24T09:14:03;5.35;;;2.90;;
72261;SDS011;60173;52.112;8.648;2023-04-24T09:16:29;2.92;;;2.60;;
72261;SDS011;60173;52.112;8.648;2023-04-24T09:19:00;4.57;;;2.83;;
72261;SDS011;60173;52.112;8.648;2023-04-24T09:21:30;6.93;;;2.90;;
72261;SDS011;60173;52.112;8.648;2023-04-24T09:24:03;3.72;;;2.90;;
72261;SDS011;60173;52.112;8.648;2023-04-24T09:26:31;5.57;;;3.20;;
72261;SDS011;60173;52.112;8.648;2023-04-24T09:28:58;5.65;;;2.97;;
72261;SDS011;60173;52.112;8.648;2023-04-24T09:31:26;3.30;;;2.65;;
72261;SDS011;60173;52.112;8.648;2023-04-24T09:33:55;5.38;;;2.78;;
72261;SDS011;60173;52.112;8.648;2023-04-24T09:36:28;4.93;;;2.63;;
72261;SDS011;60173;52.112;8.648;2023-04-24T09:38:59;5.35;;;2.60;;
72261;SDS011;60173;52.112;8.648;2023-04-24T09:41:27;4.40;;;2.88;;
72261;SDS011;60173;52.112;8.648;2023-04-24T09:43:54;5.97;;;2.58;;
72261;SDS011;60173;52.112;8.648;2023-04-24T09:46:28;2.83;;;2.42;;
72261;SDS011;60173;52.112;8.648;2023-04-24T09:48:55;3.13;;;2.13;;
72261;SDS011;60173;52.112;8.648;2023-04-24T09:51:35;3.13;;;2.25;;
72261;SDS011;60173;52.112;8.648;2023-04-24T09:54:02;3.08;;;2.00;;
72261;SDS011;60173;52.112;8.648;2023-04-24T09:56:32;2.10;;;1.83;;
72261;SDS011;60173;52.112;8.648;2023-04-24T09:59:06;2.78;;;2.10;;
72261;SDS011;60173;52.112;8.648;2023-04-24T10:01:33;2.15;;;1.70;;
72261;SDS011;60173;52.112;8.648;2023-04-24T10:04:00;3.53;;;1.80;;
72261;SDS011;60173;52.112;8.648;2023-04-24T10:06:32;2.63;;;1.80;;
72261;SDS011;60173;52.112;8.648;2023-04-24T10:09:00;2.05;;;1.52;;
72261;SDS011;60173;52.112;8.648;2023-04-24T10:11:26;2.35;;;1.83;;
72261;SDS011;60173;52.112;8.648;2023-04-24T10:13:53;3.35;;;1.80;;
72261;SDS011;60173;52.112;8.648;2023-04-24T10:16:21;3.25;;;1.52;;
72261;SDS011;60173;52.112;8.648;2023-04-24T10:18:48;2.47;;;1.63;;
72261;SDS011;60173;52.112;8.648;2023-04-24T10:21:15;2.30;;;1.70;;
72261;SDS011;60173;52.112;8.648;2023-04-24T10:23:43;2.83;;;1.52;;
72261;SDS011;60173;52.112;8.648;2023-04-24T10:26:09;2.22;;;1.60;;
72261;SDS011;60173;52.112;8.648;2023-04-24T10:28:36;1.40;;;1.30;;
72261;SDS011;60173;52.112;8.648;2023-04-24T10:31:02;1.80;;;1.27;;
72261;SDS011;60173;52.112;8.648;2023-04-24T10:33:29;2.53;;;1.38;;
72261;SDS011;60173;52.112;8.648;2023-04-24T10:35:56;3.40;;;1.38;;
72261;SDS011;60173;52.112;8.648;2023-04-24T10:38:26;1.80;;;1.42;;
72261;SDS011;60173;52.112;8.648;2023-04-24T10:41:08;2.38;;;1.40;;
72261;SDS011;60173;52.112;8.648;2023-04-24T10:43:35;1.98;;;1.50;;
72261;SDS011;60173;52.112;8.648;2023-04-24T10:46:02;1.83;;;1.65;;
72261;SDS011;60173;52.112;8.648;2023-04-24T10:48:30;1.98;;;1.77;;
72261;SDS011;60173;52.112;8.648;2023-04-24T10:50:57;1.92;;;1.73;;
72261;SDS011;60173;52.112;8.648;2023-04-24T10:53:24;3.28;;;1.90;;
72261;SDS011;60173;52.112;8.648;2023-04-24T10:55:58;3.50;;;2.72;;
72261;SDS011;60173;52.112;8.648;2023-04-24T10:58:41;3.10;;;2.60;;
72261;SDS011;60173;52.112;8.648;2023-04-24T11:01:26;4.70;;;2.85;;
72261;SDS011;60173;52.112;8.648;2023-04-24T11:03:55;4.53;;;3.30;;
72261;SDS011;60173;52.112;8.648;2023-04-24T11:08:59;4.05;;;3.42;;
72261;SDS011;60173;52.112;8.648;2023-04-24T11:11:29;6.28;;;4.05;;
72261;SDS011;60173;52.112;8.648;2023-04-24T11:21:42;3.88;;;3.47;;
72261;SDS011;60173;52.112;8.648;2023-04-24T11:24:29;5.00;;;3.45;;
72261;SDS011;60173;52.112;8.648;2023-04-24T11:29:49;3.33;;;3.03;;
72261;SDS011;60173;52.112;8.648;2023-04-24T11:35:04;3.47;;;3.17;;
72261;SDS011;60173;52.112;8.648;2023-04-24T11:37:35;3.35;;;3.05;;
72261;SDS011;60173;52.112;8.648;2023-04-24T11:40:03;3.50;;;3.20;;
72261;SDS011;60173;52.112;8.648;2023-04-24T11:42:34;3.40;;;3.10;;
72261;SDS011;60173;52.112;8.648;2023-04-24T11:45:06;3.83;;;3.42;;
72261;SDS011;60173;52.112;8.648;2023-04-24T11:47:35;3.85;;;2.70;;
72261;SDS011;60173;52.112;8.648;2023-04-24T11:50:01;3.17;;;2.60;;
72261;SDS011;60173;52.112;8.648;2023-04-24T11:52:29;3.28;;;2.58;;
72261;SDS011;60173;52.112;8.648;2023-04-24T11:54:56;2.95;;;2.10;;
72261;SDS011;60173;52.112;8.648;2023-04-24T11:57:24;1.58;;;1.40;;
72261;SDS011;60173;52.112;8.648;2023-04-24T11:59:51;2.35;;;1.20;;
72261;SDS011;60173;52.112;8.648;2023-04-24T12:02:24;1.65;;;1.30;;
72261;SDS011;60173;52.112;8.648;2023-04-24T12:04:52;1.20;;;1.08;;
72261;SDS011;60173;52.112;8.648;2023-04-24T12:07:20;0.93;;;0.70;;
72261;SDS011;60173;52.112;8.648;2023-04-24T12:09:48;0.90;;;0.70;;
72261;SDS011;60173;52.112;8.648;2023-04-24T12:12:17;1.08;;;0.70;;
72261;SDS011;60173;52.112;8.648;2023-04-24T12:14:44;0.73;;;0.73;;
72261;SDS011;60173;52.112;8.648;2023-04-24T12:17:15;1.33;;;0.70;;
72261;SDS011;60173;52.112;8.648;2023-04-24T12:19:46;0.85;;;0.70;;
72261;SDS011;60173;52.112;8.648;2023-04-24T12:22:13;0.90;;;0.70;;
72261;SDS011;60173;52.112;8.648;2023-04-24T12:24:56;1.55;;;0.65;;
72261;SDS011;60173;52.112;8.648;2023-04-24T12:27:30;1.48;;;0.90;;
72261;SDS011;60173;52.112;8.648;2023-04-24T12:29:58;2.90;;;1.83;;
72261;SDS011;60173;52.112;8.648;2023-04-24T12:32:26;3.83;;;1.23;;
72261;SDS011;60173;52.112;8.648;2023-04-24T12:34:54;3.90;;;1.30;;
72261;SDS011;60173;52.112;8.648;2023-04-24T12:37:24;2.10;;;1.30;;
72261;SDS011;60173;52.112;8.648;2023-04-24T12:40:01;1.58;;;1.30;;
72261;SDS011;60173;52.112;8.648;2023-04-24T12:45:14;1.75;;;1.50;;
72261;SDS011;60173;52.112;8.648;2023-04-24T12:47:42;3.25;;;2.00;;
72261;SDS011;60173;52.112;8.648;2023-04-24T12:50:11;5.25;;;2.30;;
72261;SDS011;60173;52.112;8.648;2023-04-24T12:52:39;4.32;;;2.80;;
72261;SDS011;60173;52.112;8.648;2023-04-24T12:55:06;5.90;;;3.25;;
72261;SDS011;60173;52.112;8.648;2023-04-24T12:57:33;6.10;;;3.50;;
72261;SDS011;60173;52.112;8.648;2023-04-24T13:00:00;7.43;;;3.83;;
72261;SDS011;60173;52.112;8.648;2023-04-24T13:02:28;5.85;;;4.03;;
72261;SDS011;60173;52.112;8.648;2023-04-24T13:04:55;7.88;;;4.22;;
72261;SDS011;60173;52.112;8.648;2023-04-24T13:07:22;7.07;;;4.60;;
72261;SDS011;60173;52.112;8.648;2023-04-24T13:09:49;7.55;;;5.00;;
72261;SDS011;60173;52.112;8.648;2023-04-24T13:12:17;10.02;;;5.85;;
72261;SDS011;60173;52.112;8.648;2023-04-24T13:14:44;10.40;;;5.57;;
72261;SDS011;60173;52.112;8.648;2023-04-24T13:17:11;7.72;;;5.40;;
72261;SDS011;60173;52.112;8.648;2023-04-24T13:19:38;9.00;;;5.25;;
72261;SDS011;60173;52.112;8.648;2023-04-24T13:22:06;8.88;;;5.78;;
72261;SDS011;60173;52.112;8.648;2023-04-24T13:24:33;9.30;;;4.85;;
72261;SDS011;60173;52.112;8.648;2023-04-24T13:26:59;4.78;;;3.38;;
72261;SDS011;60173;52.112;8.648;2023-04-24T13:29:26;5.22;;;2.80;;
72261;SDS011;60173;52.112;8.648;2023-04-24T13:31:53;4.38;;;2.78;;
72261;SDS011;60173;52.112;8.648;2023-04-24T13:34:24;8.27;;;2.53;;
72261;SDS011;60173;52.112;8.648;2023-04-24T13:36:52;7.55;;;2.97;;
72261;SDS011;60173;52.112;8.648;2023-04-24T13:39:20;6.88;;;2.60;;
72261;SDS011;60173;52.112;8.648;2023-04-24T13:41:46;4.72;;;2.60;;
72261;SDS011;60173;52.112;8.648;2023-04-24T13:44:13;5.47;;;2.90;;
72261;SDS011;60173;52.112;8.648;2023-04-24T13:46:41;7.38;;;3.13;;
72261;SDS011;60173;52.112;8.648;2023-04-24T13:49:08;7.15;;;3.13;;
72261;SDS011;60173;52.112;8.648;2023-04-24T13:51:34;4.47;;;2.85;;
72261;SDS011;60173;52.112;8.648;2023-04-24T13:54:00;8.27;;;3.30;;
72261;SDS011;60173;52.112;8.648;2023-04-24T13:56:27;6.80;;;3.30;;
72261;SDS011;60173;52.112;8.648;2023-04-24T13:58:53;6.22;;;3.20;;
72261;SDS011;60173;52.112;8.648;2023-04-24T14:01:20;8.55;;;4.03;;
72261;SDS011;60173;52.112;8.648;2023-04-24T14:03:47;6.13;;;3.53;;
72261;SDS011;60173;52.112;8.648;2023-04-24T14:06:14;10.00;;;4.47;;
72261;SDS011;60173;52.112;8.648;2023-04-24T14:08:40;8.38;;;4.55;;
72261;SDS011;60173;52.112;8.648;2023-04-24T14:11:06;13.40;;;5.10;;
72261;SDS011;60173;52.112;8.648;2023-04-24T14:13:33;14.05;;;5.30;;
72261;SDS011;60173;52.112;8.648;2023-04-24T14:15:59;13.23;;;5.88;;
72261;SDS011;60173;52.112;8.648;2023-04-24T14:18:25;11.27;;;5.88;;
72261;SDS011;60173;52.112;8.648;2023-04-24T14:20:52;11.88;;;5.70;;
72261;SDS011;60173;52.112;8.648;2023-04-24T14:23:18;11.48;;;6.72;;
72261;SDS011;60173;52.112;8.648;2023-04-24T14:25:44;14.63;;;6.50;;
72261;SDS011;60173;52.112;8.648;2023-04-24T14:28:11;14.85;;;7.10;;
72261;SDS011;60173;52.112;8.648;2023-04-24T14:30:37;12.82;;;7.03;;
72261;SDS011;60173;52.112;8.648;2023-04-24T14:33:03;15.85;;;6.57;;
72261;SDS011;60173;52.112;8.648;2023-04-24T14:35:30;15.68;;;6.95;;
72261;SDS011;60173;52.112;8.648;2023-04-24T14:37:56;13.40;;;6.68;;
72261;SDS011;60173;52.112;8.648;2023-04-24T14:40:23;16.50;;;7.53;;
72261;SDS011;60173;52.112;8.648;2023-04-24T14:43:09;13.85;;;6.85;;
72261;SDS011;60173;52.112;8.648;2023-04-24T14:45:36;19.50;;;7.25;;
72261;SDS011;60173;52.112;8.648;2023-04-24T14:48:03;16.30;;;6.65;;
72261;SDS011;60173;52.112;8.648;2023-04-24T14:50:29;13.27;;;6.72;;
72261;SDS011;60173;52.112;8.648;2023-04-24T14:52:56;12.57;;;6.40;;
72261;SDS011;60173;52.112;8.648;2023-04-24T14:55:22;13.32;;;6.40;;
72261;SDS011;60173;52.112;8.648;2023-04-24T14:57:49;13.23;;;5.93;;
72261;SDS011;60173;52.112;8.648;2023-04-24T15:00:16;14.07;;;6.35;;
72261;SDS011;60173;52.112;8.648;2023-04-24T15:02:43;10.13;;;6.28;;